sensor_id;sensor_type;location;lat;lon;timestamp;temperature;humidity
16267;DHT22;8241;48.786;9.250;2023-03-23T00:00:51;14.40;90.80
16267;DHT22;8241;48.786;9.250;2023-03-23T00:03:19;14.40;90.80
16267;DHT22;8241;48.786;9.250;2023-03-23T00:05:46;14.40;90.60
16267;DHT22;8241;48.786;9.250;2023-03-23T00:08:16;14.40;91.00
16267;DHT22;8241;48.786;9.250;2023-03-23T00:10:44;14.30;91.60
16267;DHT22;8241;48.786;9.250;2023-03-23T00:13:10;14.20;91.90
16267;DHT22;8241;48.786;9.250;2023-03-23T00:15:38;14.10;92.10
16267;DHT22;8241;48.786;9.250;2023-03-23T00:18:06;14.00;92.30
16267;DHT22;8241;48.786;9.250;2023-03-23T00:20:33;14.00;92.50
16267;DHT22;8241;48.786;9.250;2023-03-23T00:23:06;13.90;92.60
16267;DHT22;8241;48.786;9.250;2023-03-23T00:25:33;13.90;92.70
16267;DHT22;8241;48.786;9.250;2023-03-23T00:28:01;13.90;92.50
16267;DHT22;8241;48.786;9.250;2023-03-23T00:30:28;13.90;92.40
16267;DHT22;8241;48.786;9.250;2023-03-23T00:32:55;13.90;92.40
16267;DHT22;8241;48.786;9.250;2023-03-23T00:35:23;13.90;92.40
16267;DHT22;8241;48.786;9.250;2023-03-23T00:37:50;13.90;92.30
16267;DHT22;8241;48.786;9.250;2023-03-23T00:40:18;13.90;92.30
16267;DHT22;8241;48.786;9.250;2023-03-23T00:42:45;13.90;92.40
16267;DHT22;8241;48.786;9.250;2023-03-23T00:45:15;13.80;92.30
16267;DHT22;8241;48.786;9.250;2023-03-23T00:47:42;13.80;91.90
16267;DHT22;8241;48.786;9.250;2023-03-23T00:50:12;13.80;91.50
16267;DHT22;8241;48.786;9.250;2023-03-23T00:52:39;13.80;91.30
16267;DHT22;8241;48.786;9.250;2023-03-23T00:55:06;13.80;91.30
16267;DHT22;8241;48.786;9.250;2023-03-23T00:57:33;13.80;91.30
16267;DHT22;8241;48.786;9.250;2023-03-23T01:00:00;13.90;91.30
16267;DHT22;8241;48.786;9.250;2023-03-23T01:02:30;13.90;91.10
16267;DHT22;8241;48.786;9.250;2023-03-23T01:04:57;13.90;91.50
16267;DHT22;8241;48.786;9.250;2023-03-23T01:07:24;13.90;92.00
16267;DHT22;8241;48.786;9.250;2023-03-23T01:09:53;13.80;92.30
16267;DHT22;8241;48.786;9.250;2023-03-23T01:12:23;13.80;92.50
16267;DHT22;8241;48.786;9.250;2023-03-23T01:14:50;13.80;93.10
16267;DHT22;8241;48.786;9.250;2023-03-23T01:17:17;13.70;93.10
16267;DHT22;8241;48.786;9.250;2023-03-23T01:19:46;13.70;93.30
16267;DHT22;8241;48.786;9.250;2023-03-23T01:22:13;13.60;93.30
16267;DHT22;8241;48.786;9.250;2023-03-23T01:24:40;13.60;93.50
16267;DHT22;8241;48.786;9.250;2023-03-23T01:27:07;13.50;93.70
16267;DHT22;8241;48.786;9.250;2023-03-23T01:29:34;13.50;93.90
16267;DHT22;8241;48.786;9.250;2023-03-23T01:32:01;13.40;94.10
16267;DHT22;8241;48.786;9.250;2023-03-23T01:34:28;13.30;94.50
16267;DHT22;8241;48.786;9.250;2023-03-23T01:36:57;13.30;94.80
16267;DHT22;8241;48.786;9.250;2023-03-23T01:39:24;13.20;95.00
16267;DHT22;8241;48.786;9.250;2023-03-23T01:41:50;13.20;95.00
16267;DHT22;8241;48.786;9.250;2023-03-23T01:47:07;13.10;94.90
16267;DHT22;8241;48.786;9.250;2023-03-23T01:49:36;13.10;94.50
16267;DHT22;8241;48.786;9.250;2023-03-23T01:52:06;13.20;94.30
16267;DHT22;8241;48.786;9.250;2023-03-23T01:54:35;13.10;94.10
16267;DHT22;8241;48.786;9.250;2023-03-23T01:57:04;13.20;94.10
16267;DHT22;8241;48.786;9.250;2023-03-23T01:59:33;13.20;94.40
16267;DHT22;8241;48.786;9.250;2023-03-23T02:02:21;13.20;94.70
16267;DHT22;8241;48.786;9.250;2023-03-23T02:04:49;13.20;94.80
16267;DHT22;8241;48.786;9.250;2023-03-23T02:07:19;13.20;95.10
16267;DHT22;8241;48.786;9.250;2023-03-23T02:09:49;13.20;95.10
16267;DHT22;8241;48.786;9.250;2023-03-23T02:12:16;13.10;95.60
16267;DHT22;8241;48.786;9.250;2023-03-23T02:14:44;13.10;95.40
16267;DHT22;8241;48.786;9.250;2023-03-23T02:17:12;13.10;95.60
16267;DHT22;8241;48.786;9.250;2023-03-23T02:19:52;13.00;95.80
16267;DHT22;8241;48.786;9.250;2023-03-23T02:30:50;13.00;96.10
16267;DHT22;8241;48.786;9.250;2023-03-23T02:33:24;13.00;96.10
16267;DHT22;8241;48.786;9.250;2023-03-23T02:35:56;13.00;96.10
16267;DHT22;8241;48.786;9.250;2023-03-23T02:38:26;12.90;96.30
16267;DHT22;8241;48.786;9.250;2023-03-23T02:40:54;13.00;96.30
16267;DHT22;8241;48.786;9.250;2023-03-23T02:43:24;12.90;96.30
16267;DHT22;8241;48.786;9.250;2023-03-23T02:45:53;12.90;96.30
16267;DHT22;8241;48.786;9.250;2023-03-23T02:48:24;12.90;96.20
16267;DHT22;8241;48.786;9.250;2023-03-23T02:50:53;12.90;95.90
16267;DHT22;8241;48.786;9.250;2023-03-23T02:53:22;12.90;95.80
16267;DHT22;8241;48.786;9.250;2023-03-23T02:55:51;12.90;95.70
16267;DHT22;8241;48.786;9.250;2023-03-23T02:58:21;12.90;95.90
16267;DHT22;8241;48.786;9.250;2023-03-23T03:00:48;12.90;96.00
16267;DHT22;8241;48.786;9.250;2023-03-23T03:03:16;12.90;96.20
16267;DHT22;8241;48.786;9.250;2023-03-23T03:05:48;12.90;96.40
16267;DHT22;8241;48.786;9.250;2023-03-23T03:08:22;12.80;96.60
16267;DHT22;8241;48.786;9.250;2023-03-23T03:10:52;12.80;96.70
16267;DHT22;8241;48.786;9.250;2023-03-23T03:13:23;12.80;96.90
16267;DHT22;8241;48.786;9.250;2023-03-23T03:15:53;12.70;97.10
16267;DHT22;8241;48.786;9.250;2023-03-23T03:18:24;12.70;97.30
16267;DHT22;8241;48.786;9.250;2023-03-23T03:20:54;12.70;97.50
16267;DHT22;8241;48.786;9.250;2023-03-23T03:23:23;12.70;97.60
16267;DHT22;8241;48.786;9.250;2023-03-23T03:25:52;12.60;97.60
16267;DHT22;8241;48.786;9.250;2023-03-23T03:28:31;12.60;97.70
16267;DHT22;8241;48.786;9.250;2023-03-23T03:30:59;12.60;97.70
16267;DHT22;8241;48.786;9.250;2023-03-23T03:33:28;12.70;97.60
16267;DHT22;8241;48.786;9.250;2023-03-23T03:35:59;12.60;97.60
16267;DHT22;8241;48.786;9.250;2023-03-23T03:38:27;12.60;97.50
16267;DHT22;8241;48.786;9.250;2023-03-23T03:40:55;12.60;97.40
16267;DHT22;8241;48.786;9.250;2023-03-23T03:43:23;12.70;97.10
16267;DHT22;8241;48.786;9.250;2023-03-23T03:45:50;12.70;96.50
16267;DHT22;8241;48.786;9.250;2023-03-23T03:48:17;12.70;96.30
16267;DHT22;8241;48.786;9.250;2023-03-23T03:50:43;12.80;96.20
16267;DHT22;8241;48.786;9.250;2023-03-23T03:53:12;12.80;96.10
16267;DHT22;8241;48.786;9.250;2023-03-23T03:55:39;12.90;95.90
16267;DHT22;8241;48.786;9.250;2023-03-23T03:58:14;12.90;96.00
16267;DHT22;8241;48.786;9.250;2023-03-23T04:01:04;12.90;96.10
16267;DHT22;8241;48.786;9.250;2023-03-23T04:03:35;12.90;96.10
16267;DHT22;8241;48.786;9.250;2023-03-23T04:06:11;12.90;96.20
16267;DHT22;8241;48.786;9.250;2023-03-23T04:08:40;12.90;96.30
16267;DHT22;8241;48.786;9.250;2023-03-23T04:11:08;12.90;96.50
16267;DHT22;8241;48.786;9.250;2023-03-23T04:13:35;12.90;96.60
16267;DHT22;8241;48.786;9.250;2023-03-23T04:16:35;12.80;96.70
16267;DHT22;8241;48.786;9.250;2023-03-23T04:19:02;12.80;96.80
16267;DHT22;8241;48.786;9.250;2023-03-23T04:21:29;12.90;96.80
16267;DHT22;8241;48.786;9.250;2023-03-23T04:23:57;12.90;96.60
16267;DHT22;8241;48.786;9.250;2023-03-23T04:26:26;12.90;96.60
16267;DHT22;8241;48.786;9.250;2023-03-23T04:28:56;12.90;96.60
16267;DHT22;8241;48.786;9.250;2023-03-23T04:31:47;12.90;96.60
16267;DHT22;8241;48.786;9.250;2023-03-23T04:34:28;13.00;96.60
16267;DHT22;8241;48.786;9.250;2023-03-23T04:37:00;13.00;96.70
16267;DHT22;8241;48.786;9.250;2023-03-23T04:39:30;13.00;96.60
16267;DHT22;8241;48.786;9.250;2023-03-23T04:42:01;13.00;96.70
16267;DHT22;8241;48.786;9.250;2023-03-23T04:44:54;13.10;96.50
16267;DHT22;8241;48.786;9.250;2023-03-23T04:47:27;13.10;96.20
16267;DHT22;8241;48.786;9.250;2023-03-23T04:49:58;13.20;96.00
16267;DHT22;8241;48.786;9.250;2023-03-23T04:52:31;13.20;95.80
16267;DHT22;8241;48.786;9.250;2023-03-23T04:55:04;13.20;95.80
16267;DHT22;8241;48.786;9.250;2023-03-23T04:57:31;13.20;95.90
16267;DHT22;8241;48.786;9.250;2023-03-23T05:00:18;13.20;95.90
16267;DHT22;8241;48.786;9.250;2023-03-23T05:02:49;13.20;95.80
16267;DHT22;8241;48.786;9.250;2023-03-23T05:05:19;13.30;95.90
16267;DHT22;8241;48.786;9.250;2023-03-23T05:07:47;13.30;95.90
16267;DHT22;8241;48.786;9.250;2023-03-23T05:10:18;13.30;95.90
16267;DHT22;8241;48.786;9.250;2023-03-23T05:12:46;13.30;95.90
16267;DHT22;8241;48.786;9.250;2023-03-23T05:15:13;13.30;96.00
16267;DHT22;8241;48.786;9.250;2023-03-23T05:17:42;13.30;96.10
16267;DHT22;8241;48.786;9.250;2023-03-23T05:20:14;13.30;96.20
16267;DHT22;8241;48.786;9.250;2023-03-23T05:22:47;13.30;96.00
16267;DHT22;8241;48.786;9.250;2023-03-23T05:25:16;13.30;96.20
16267;DHT22;8241;48.786;9.250;2023-03-23T05:27:48;13.30;95.90
16267;DHT22;8241;48.786;9.250;2023-03-23T05:30:32;13.30;95.70
16267;DHT22;8241;48.786;9.250;2023-03-23T05:32:59;13.40;95.90
16267;DHT22;8241;48.786;9.250;2023-03-23T05:35:46;13.30;96.00
16267;DHT22;8241;48.786;9.250;2023-03-23T05:38:15;13.30;96.30
16267;DHT22;8241;48.786;9.250;2023-03-23T05:40:43;13.30;96.60
16267;DHT22;8241;48.786;9.250;2023-03-23T05:43:17;13.30;96.90
16267;DHT22;8241;48.786;9.250;2023-03-23T05:45:55;13.20;97.40
16267;DHT22;8241;48.786;9.250;2023-03-23T05:48:22;13.10;97.30
16267;DHT22;8241;48.786;9.250;2023-03-23T05:50:50;13.10;97.30
16267;DHT22;8241;48.786;9.250;2023-03-23T05:53:20;13.10;97.50
16267;DHT22;8241;48.786;9.250;2023-03-23T05:55:48;13.10;97.50
16267;DHT22;8241;48.786;9.250;2023-03-23T05:58:34;13.10;97.70
16267;DHT22;8241;48.786;9.250;2023-03-23T06:01:05;13.10;97.70
16267;DHT22;8241;48.786;9.250;2023-03-23T06:03:32;13.10;97.80
16267;DHT22;8241;48.786;9.250;2023-03-23T06:06:06;13.10;97.90
16267;DHT22;8241;48.786;9.250;2023-03-23T06:08:46;13.10;97.60
16267;DHT22;8241;48.786;9.250;2023-03-23T06:11:16;13.10;97.40
16267;DHT22;8241;48.786;9.250;2023-03-23T06:14:00;13.20;97.20
16267;DHT22;8241;48.786;9.250;2023-03-23T06:16:29;13.20;97.10
16267;DHT22;8241;48.786;9.250;2023-03-23T06:18:57;13.30;97.00
16267;DHT22;8241;48.786;9.250;2023-03-23T06:21:32;13.30;96.70
16267;DHT22;8241;48.786;9.250;2023-03-23T06:24:11;13.40;96.50
16267;DHT22;8241;48.786;9.250;2023-03-23T06:26:38;13.50;96.30
16267;DHT22;8241;48.786;9.250;2023-03-23T06:29:11;13.60;96.20
16267;DHT22;8241;48.786;9.250;2023-03-23T06:31:47;13.60;96.10
16267;DHT22;8241;48.786;9.250;2023-03-23T06:34:14;13.60;95.80
16267;DHT22;8241;48.786;9.250;2023-03-23T06:36:54;13.70;95.60
16267;DHT22;8241;48.786;9.250;2023-03-23T06:39:39;13.80;95.30
16267;DHT22;8241;48.786;9.250;2023-03-23T06:42:17;13.80;94.90
16267;DHT22;8241;48.786;9.250;2023-03-23T06:44:52;13.90;94.80
16267;DHT22;8241;48.786;9.250;2023-03-23T06:47:22;14.00;94.70
16267;DHT22;8241;48.786;9.250;2023-03-23T06:49:49;14.00;94.50
16267;DHT22;8241;48.786;9.250;2023-03-23T06:52:24;14.10;93.90
16267;DHT22;8241;48.786;9.250;2023-03-23T06:54:52;14.20;93.80
16267;DHT22;8241;48.786;9.250;2023-03-23T06:57:20;14.30;93.70
16267;DHT22;8241;48.786;9.250;2023-03-23T06:59:51;14.40;93.60
16267;DHT22;8241;48.786;9.250;2023-03-23T07:02:18;14.40;93.60
16267;DHT22;8241;48.786;9.250;2023-03-23T07:04:49;14.50;93.50
16267;DHT22;8241;48.786;9.250;2023-03-23T07:07:20;14.60;93.50
16267;DHT22;8241;48.786;9.250;2023-03-23T07:09:58;14.60;93.10
16267;DHT22;8241;48.786;9.250;2023-03-23T07:12:25;14.70;92.70
16267;DHT22;8241;48.786;9.250;2023-03-23T07:14:54;14.80;92.80
16267;DHT22;8241;48.786;9.250;2023-03-23T07:17:20;14.80;92.50
16267;DHT22;8241;48.786;9.250;2023-03-23T07:20:06;14.90;92.30
16267;DHT22;8241;48.786;9.250;2023-03-23T07:22:33;15.00;92.20
16267;DHT22;8241;48.786;9.250;2023-03-23T07:25:08;15.00;91.90
16267;DHT22;8241;48.786;9.250;2023-03-23T07:27:48;15.00;91.80
16267;DHT22;8241;48.786;9.250;2023-03-23T07:30:17;15.10;91.80
16267;DHT22;8241;48.786;9.250;2023-03-23T07:32:44;15.10;91.80
16267;DHT22;8241;48.786;9.250;2023-03-23T07:35:11;15.10;91.70
16267;DHT22;8241;48.786;9.250;2023-03-23T07:37:56;15.20;91.70
16267;DHT22;8241;48.786;9.250;2023-03-23T07:40:23;15.20;91.70
16267;DHT22;8241;48.786;9.250;2023-03-23T07:42:56;15.20;91.60
16267;DHT22;8241;48.786;9.250;2023-03-23T07:45:54;15.30;91.50
16267;DHT22;8241;48.786;9.250;2023-03-23T07:48:24;15.30;91.60
16267;DHT22;8241;48.786;9.250;2023-03-23T07:50:52;15.30;91.40
16267;DHT22;8241;48.786;9.250;2023-03-23T07:53:20;15.40;91.30
16267;DHT22;8241;48.786;9.250;2023-03-23T07:55:57;15.50;91.20
16267;DHT22;8241;48.786;9.250;2023-03-23T07:58:44;15.50;91.00
16267;DHT22;8241;48.786;9.250;2023-03-23T08:01:12;15.60;91.20
16267;DHT22;8241;48.786;9.250;2023-03-23T08:03:42;15.70;91.30
16267;DHT22;8241;48.786;9.250;2023-03-23T08:06:20;15.80;91.10
16267;DHT22;8241;48.786;9.250;2023-03-23T08:09:13;15.90;91.10
16267;DHT22;8241;48.786;9.250;2023-03-23T08:11:59;16.00;91.20
16267;DHT22;8241;48.786;9.250;2023-03-23T08:14:44;16.00;91.10
16267;DHT22;8241;48.786;9.250;2023-03-23T08:17:35;16.10;91.30
16267;DHT22;8241;48.786;9.250;2023-03-23T08:20:15;16.20;91.30
16267;DHT22;8241;48.786;9.250;2023-03-23T08:23:06;16.20;91.30
16267;DHT22;8241;48.786;9.250;2023-03-23T08:25:52;16.20;91.50
16267;DHT22;8241;48.786;9.250;2023-03-23T08:28:38;16.20;91.70
16267;DHT22;8241;48.786;9.250;2023-03-23T08:31:28;16.20;91.60
16267;DHT22;8241;48.786;9.250;2023-03-23T08:34:03;16.30;91.70
16267;DHT22;8241;48.786;9.250;2023-03-23T08:36:37;16.30;91.70
16267;DHT22;8241;48.786;9.250;2023-03-23T08:39:16;16.40;91.70
16267;DHT22;8241;48.786;9.250;2023-03-23T08:41:58;16.40;91.90
16267;DHT22;8241;48.786;9.250;2023-03-23T08:45:01;16.40;91.70
16267;DHT22;8241;48.786;9.250;2023-03-23T08:47:48;16.40;92.20
16267;DHT22;8241;48.786;9.250;2023-03-23T08:50:37;16.40;92.10
16267;DHT22;8241;48.786;9.250;2023-03-23T08:53:09;16.40;92.50
16267;DHT22;8241;48.786;9.250;2023-03-23T08:55:42;16.30;92.50
16267;DHT22;8241;48.786;9.250;2023-03-23T08:58:25;16.30;92.70
16267;DHT22;8241;48.786;9.250;2023-03-23T09:01:27;16.30;92.80
16267;DHT22;8241;48.786;9.250;2023-03-23T09:04:12;16.20;93.00
16267;DHT22;8241;48.786;9.250;2023-03-23T09:06:51;16.20;93.00
16267;DHT22;8241;48.786;9.250;2023-03-23T09:09:18;16.20;93.20
16267;DHT22;8241;48.786;9.250;2023-03-23T09:11:45;16.20;93.40
16267;DHT22;8241;48.786;9.250;2023-03-23T09:14:12;16.20;93.30
16267;DHT22;8241;48.786;9.250;2023-03-23T09:16:38;16.20;93.40
16267;DHT22;8241;48.786;9.250;2023-03-23T09:19:06;16.30;93.20
16267;DHT22;8241;48.786;9.250;2023-03-23T09:21:35;16.40;93.40
16267;DHT22;8241;48.786;9.250;2023-03-23T09:24:04;16.50;92.80
16267;DHT22;8241;48.786;9.250;2023-03-23T09:26:31;16.60;92.70
16267;DHT22;8241;48.786;9.250;2023-03-23T09:28:58;16.60;92.60
16267;DHT22;8241;48.786;9.250;2023-03-23T09:31:25;16.60;92.90
16267;DHT22;8241;48.786;9.250;2023-03-23T09:33:53;16.70;92.80
16267;DHT22;8241;48.786;9.250;2023-03-23T09:36:21;16.80;92.50
16267;DHT22;8241;48.786;9.250;2023-03-23T09:38:48;16.80;92.30
16267;DHT22;8241;48.786;9.250;2023-03-23T09:41:19;16.90;92.00
16267;DHT22;8241;48.786;9.250;2023-03-23T09:43:55;16.90;92.30
16267;DHT22;8241;48.786;9.250;2023-03-23T09:46:29;16.80;91.80
16267;DHT22;8241;48.786;9.250;2023-03-23T09:48:59;16.80;92.20
16267;DHT22;8241;48.786;9.250;2023-03-23T09:51:31;16.80;92.30
16267;DHT22;8241;48.786;9.250;2023-03-23T09:54:01;16.80;92.10
16267;DHT22;8241;48.786;9.250;2023-03-23T09:56:31;16.80;92.20
16267;DHT22;8241;48.786;9.250;2023-03-23T09:59:00;16.80;92.30
16267;DHT22;8241;48.786;9.250;2023-03-23T10:01:31;16.80;92.00
16267;DHT22;8241;48.786;9.250;2023-03-23T10:04:01;16.80;92.00
16267;DHT22;8241;48.786;9.250;2023-03-23T10:06:31;16.80;92.60
16267;DHT22;8241;48.786;9.250;2023-03-23T10:08:58;16.80;92.30
16267;DHT22;8241;48.786;9.250;2023-03-23T10:14:19;16.80;92.50
16267;DHT22;8241;48.786;9.250;2023-03-23T10:16:52;16.80;92.40
16267;DHT22;8241;48.786;9.250;2023-03-23T10:19:24;16.70;92.60
16267;DHT22;8241;48.786;9.250;2023-03-23T10:21:55;16.80;92.70
16267;DHT22;8241;48.786;9.250;2023-03-23T10:24:25;16.80;92.50
16267;DHT22;8241;48.786;9.250;2023-03-23T10:26:57;16.80;92.60
16267;DHT22;8241;48.786;9.250;2023-03-23T10:29:29;16.90;92.50
16267;DHT22;8241;48.786;9.250;2023-03-23T10:31:58;16.90;92.40
16267;DHT22;8241;48.786;9.250;2023-03-23T10:34:28;17.00;92.20
16267;DHT22;8241;48.786;9.250;2023-03-23T10:37:01;17.00;92.30
16267;DHT22;8241;48.786;9.250;2023-03-23T10:39:29;17.10;92.80
16267;DHT22;8241;48.786;9.250;2023-03-23T10:41:59;17.20;92.30
16267;DHT22;8241;48.786;9.250;2023-03-23T10:44:33;17.20;91.90
16267;DHT22;8241;48.786;9.250;2023-03-23T10:47:01;17.20;92.10
16267;DHT22;8241;48.786;9.250;2023-03-23T10:49:29;17.20;92.00
16267;DHT22;8241;48.786;9.250;2023-03-23T10:52:01;17.20;92.00
16267;DHT22;8241;48.786;9.250;2023-03-23T10:54:31;17.10;92.20
16267;DHT22;8241;48.786;9.250;2023-03-23T10:56:58;17.10;92.50
16267;DHT22;8241;48.786;9.250;2023-03-23T10:59:26;17.10;92.60
16267;DHT22;8241;48.786;9.250;2023-03-23T11:01:56;17.10;92.50
16267;DHT22;8241;48.786;9.250;2023-03-23T11:04:24;17.10;92.70
16267;DHT22;8241;48.786;9.250;2023-03-23T11:06:52;17.10;92.50
16267;DHT22;8241;48.786;9.250;2023-03-23T11:09:19;17.10;92.50
16267;DHT22;8241;48.786;9.250;2023-03-23T11:11:48;17.10;92.50
16267;DHT22;8241;48.786;9.250;2023-03-23T11:14:16;17.10;92.60
16267;DHT22;8241;48.786;9.250;2023-03-23T11:16:45;17.20;92.50
16267;DHT22;8241;48.786;9.250;2023-03-23T11:19:14;17.20;92.30
16267;DHT22;8241;48.786;9.250;2023-03-23T11:21:45;17.20;92.20
16267;DHT22;8241;48.786;9.250;2023-03-23T11:24:13;17.10;92.30
16267;DHT22;8241;48.786;9.250;2023-03-23T11:26:42;17.20;92.30
16267;DHT22;8241;48.786;9.250;2023-03-23T11:29:10;17.10;92.50
16267;DHT22;8241;48.786;9.250;2023-03-23T11:31:39;17.10;92.70
16267;DHT22;8241;48.786;9.250;2023-03-23T11:34:09;17.10;92.90
16267;DHT22;8241;48.786;9.250;2023-03-23T11:36:38;17.10;92.90
16267;DHT22;8241;48.786;9.250;2023-03-23T11:39:18;17.10;93.00
16267;DHT22;8241;48.786;9.250;2023-03-23T11:41:46;17.20;93.30
16267;DHT22;8241;48.786;9.250;2023-03-23T11:44:13;17.20;92.80
16267;DHT22;8241;48.786;9.250;2023-03-23T11:46:43;17.30;92.80
16267;DHT22;8241;48.786;9.250;2023-03-23T11:49:15;17.30;92.90
16267;DHT22;8241;48.786;9.250;2023-03-23T11:51:46;17.40;92.60
16267;DHT22;8241;48.786;9.250;2023-03-23T11:54:15;17.40;92.50
16267;DHT22;8241;48.786;9.250;2023-03-23T11:56:44;17.40;92.90
16267;DHT22;8241;48.786;9.250;2023-03-23T11:59:12;17.50;92.80
16267;DHT22;8241;48.786;9.250;2023-03-23T12:01:43;17.50;92.70
16267;DHT22;8241;48.786;9.250;2023-03-23T12:07:03;17.50;92.20
16267;DHT22;8241;48.786;9.250;2023-03-23T12:09:36;17.50;92.30
16267;DHT22;8241;48.786;9.250;2023-03-23T12:12:07;17.50;92.20
16267;DHT22;8241;48.786;9.250;2023-03-23T12:14:38;17.50;92.60
16267;DHT22;8241;48.786;9.250;2023-03-23T12:17:12;17.60;92.50
16267;DHT22;8241;48.786;9.250;2023-03-23T12:19:43;17.60;92.70
16267;DHT22;8241;48.786;9.250;2023-03-23T12:22:18;17.70;92.30
16267;DHT22;8241;48.786;9.250;2023-03-23T12:24:50;17.80;91.60
16267;DHT22;8241;48.786;9.250;2023-03-23T12:27:22;17.80;90.60
16267;DHT22;8241;48.786;9.250;2023-03-23T12:29:55;17.80;90.10
16267;DHT22;8241;48.786;9.250;2023-03-23T12:32:25;17.80;90.50
16267;DHT22;8241;48.786;9.250;2023-03-23T12:34:58;17.80;90.20
16267;DHT22;8241;48.786;9.250;2023-03-23T12:37:33;17.80;90.10
16267;DHT22;8241;48.786;9.250;2023-03-23T12:40:06;17.80;90.60
16267;DHT22;8241;48.786;9.250;2023-03-23T12:42:37;17.80;90.10
16267;DHT22;8241;48.786;9.250;2023-03-23T12:45:08;17.80;90.20
16267;DHT22;8241;48.786;9.250;2023-03-23T12:47:45;17.80;90.10
16267;DHT22;8241;48.786;9.250;2023-03-23T12:50:14;17.80;90.10
16267;DHT22;8241;48.786;9.250;2023-03-23T12:52:46;17.70;90.20
16267;DHT22;8241;48.786;9.250;2023-03-23T12:55:15;17.70;90.50
16267;DHT22;8241;48.786;9.250;2023-03-23T12:57:45;17.90;90.30
16267;DHT22;8241;48.786;9.250;2023-03-23T13:00:14;17.90;90.60
16267;DHT22;8241;48.786;9.250;2023-03-23T13:02:46;18.00;90.60
16267;DHT22;8241;48.786;9.250;2023-03-23T13:05:25;18.10;90.20
16267;DHT22;8241;48.786;9.250;2023-03-23T13:07:56;18.10;90.00
16267;DHT22;8241;48.786;9.250;2023-03-23T13:10:27;18.20;90.30
16267;DHT22;8241;48.786;9.250;2023-03-23T13:12:55;18.20;90.10
16267;DHT22;8241;48.786;9.250;2023-03-23T13:15:29;18.20;90.20
16267;DHT22;8241;48.786;9.250;2023-03-23T13:18:00;18.20;90.50
16267;DHT22;8241;48.786;9.250;2023-03-23T13:20:35;18.20;90.30
16267;DHT22;8241;48.786;9.250;2023-03-23T13:23:08;18.10;90.30
16267;DHT22;8241;48.786;9.250;2023-03-23T13:28:25;18.10;90.70
16267;DHT22;8241;48.786;9.250;2023-03-23T13:31:00;18.10;90.40
16267;DHT22;8241;48.786;9.250;2023-03-23T13:33:34;18.10;90.80
16267;DHT22;8241;48.786;9.250;2023-03-23T13:36:04;18.20;90.70
16267;DHT22;8241;48.786;9.250;2023-03-23T13:38:33;18.20;90.50
16267;DHT22;8241;48.786;9.250;2023-03-23T13:41:05;18.30;90.70
16267;DHT22;8241;48.786;9.250;2023-03-23T13:43:33;18.40;90.80
16267;DHT22;8241;48.786;9.250;2023-03-23T13:46:09;18.40;90.70
16267;DHT22;8241;48.786;9.250;2023-03-23T13:48:40;18.40;90.40
16267;DHT22;8241;48.786;9.250;2023-03-23T13:51:21;18.40;89.90
16267;DHT22;8241;48.786;9.250;2023-03-23T13:53:51;18.30;89.80
16267;DHT22;8241;48.786;9.250;2023-03-23T13:56:19;18.40;89.20
16267;DHT22;8241;48.786;9.250;2023-03-23T13:58:47;18.40;89.80
16267;DHT22;8241;48.786;9.250;2023-03-23T14:01:16;18.40;90.00
16267;DHT22;8241;48.786;9.250;2023-03-23T14:03:45;18.40;89.00
16267;DHT22;8241;48.786;9.250;2023-03-23T14:06:16;18.40;89.90
16267;DHT22;8241;48.786;9.250;2023-03-23T14:09:05;18.30;89.20
16267;DHT22;8241;48.786;9.250;2023-03-23T14:11:44;18.30;89.80
16267;DHT22;8241;48.786;9.250;2023-03-23T14:14:13;18.30;90.10
16267;DHT22;8241;48.786;9.250;2023-03-23T14:16:42;18.30;90.20
16267;DHT22;8241;48.786;9.250;2023-03-23T14:19:17;18.30;89.70
16267;DHT22;8241;48.786;9.250;2023-03-23T14:21:48;18.30;89.70
16267;DHT22;8241;48.786;9.250;2023-03-23T14:24:19;18.30;89.40
16267;DHT22;8241;48.786;9.250;2023-03-23T14:26:48;18.30;88.20
16267;DHT22;8241;48.786;9.250;2023-03-23T14:29:18;18.30;88.30
16267;DHT22;8241;48.786;9.250;2023-03-23T14:31:45;18.30;87.70
16267;DHT22;8241;48.786;9.250;2023-03-23T14:34:16;18.30;88.00
16267;DHT22;8241;48.786;9.250;2023-03-23T14:36:44;18.30;87.80
16267;DHT22;8241;48.786;9.250;2023-03-23T14:39:14;18.30;87.20
16267;DHT22;8241;48.786;9.250;2023-03-23T14:41:43;18.30;87.50
16267;DHT22;8241;48.786;9.250;2023-03-23T14:44:12;18.30;87.50
16267;DHT22;8241;48.786;9.250;2023-03-23T14:46:39;18.30;87.00
16267;DHT22;8241;48.786;9.250;2023-03-23T14:49:10;18.30;87.10
16267;DHT22;8241;48.786;9.250;2023-03-23T14:51:45;18.30;86.20
16267;DHT22;8241;48.786;9.250;2023-03-23T14:54:12;18.30;86.40
16267;DHT22;8241;48.786;9.250;2023-03-23T14:56:39;18.20;86.20
16267;DHT22;8241;48.786;9.250;2023-03-23T14:59:10;18.20;86.20
16267;DHT22;8241;48.786;9.250;2023-03-23T15:01:37;18.20;86.20
16267;DHT22;8241;48.786;9.250;2023-03-23T15:04:07;18.30;86.30
16267;DHT22;8241;48.786;9.250;2023-03-23T15:06:37;18.20;86.30
16267;DHT22;8241;48.786;9.250;2023-03-23T15:09:05;18.30;86.10
16267;DHT22;8241;48.786;9.250;2023-03-23T15:11:33;18.30;86.00
16267;DHT22;8241;48.786;9.250;2023-03-23T15:14:02;18.30;86.20
16267;DHT22;8241;48.786;9.250;2023-03-23T15:16:32;18.30;85.60
16267;DHT22;8241;48.786;9.250;2023-03-23T15:19:00;18.30;85.40
16267;DHT22;8241;48.786;9.250;2023-03-23T15:21:29;18.30;85.20
16267;DHT22;8241;48.786;9.250;2023-03-23T15:23:57;18.30;85.30
16267;DHT22;8241;48.786;9.250;2023-03-23T15:26:28;18.30;85.20
16267;DHT22;8241;48.786;9.250;2023-03-23T15:29:00;18.30;84.50
16267;DHT22;8241;48.786;9.250;2023-03-23T15:31:27;18.30;84.40
16267;DHT22;8241;48.786;9.250;2023-03-23T15:33:56;18.30;84.60
16267;DHT22;8241;48.786;9.250;2023-03-23T15:36:24;18.30;84.80
16267;DHT22;8241;48.786;9.250;2023-03-23T15:38:51;18.30;84.70
16267;DHT22;8241;48.786;9.250;2023-03-23T15:41:21;18.30;84.20
16267;DHT22;8241;48.786;9.250;2023-03-23T15:43:49;18.30;84.30
16267;DHT22;8241;48.786;9.250;2023-03-23T15:46:20;18.30;84.10
16267;DHT22;8241;48.786;9.250;2023-03-23T15:48:48;18.30;83.80
16267;DHT22;8241;48.786;9.250;2023-03-23T15:51:17;18.30;84.10
16267;DHT22;8241;48.786;9.250;2023-03-23T15:53:45;18.20;84.20
16267;DHT22;8241;48.786;9.250;2023-03-23T15:56:12;18.20;84.50
16267;DHT22;8241;48.786;9.250;2023-03-23T15:58:40;18.10;84.30
16267;DHT22;8241;48.786;9.250;2023-03-23T16:01:09;18.10;84.90
16267;DHT22;8241;48.786;9.250;2023-03-23T16:03:38;18.10;85.10
16267;DHT22;8241;48.786;9.250;2023-03-23T16:06:08;18.10;85.10
16267;DHT22;8241;48.786;9.250;2023-03-23T16:08:38;18.10;85.30
16267;DHT22;8241;48.786;9.250;2023-03-23T16:11:05;18.10;85.20
16267;DHT22;8241;48.786;9.250;2023-03-23T16:13:32;18.00;85.30
16267;DHT22;8241;48.786;9.250;2023-03-23T16:15:59;17.90;85.20
16267;DHT22;8241;48.786;9.250;2023-03-23T16:18:27;18.00;85.60
16267;DHT22;8241;48.786;9.250;2023-03-23T16:20:54;17.90;85.80
16267;DHT22;8241;48.786;9.250;2023-03-23T16:23:21;17.90;86.00
16267;DHT22;8241;48.786;9.250;2023-03-23T16:25:50;17.90;85.90
16267;DHT22;8241;48.786;9.250;2023-03-23T16:28:17;17.80;85.70
16267;DHT22;8241;48.786;9.250;2023-03-23T16:30:45;17.80;85.70